Terminal Aerodrome Forecast
Issued by NWS Northern Indiana

Home | Current Version | Previous Version | Text Only | Print | Product List | Glossary Off
Versions: 1 2 3 4 5 6 7 8 9 10 11 12 13 14 15 16

000
FTUS43 KIWX 301700
TAFFWA
TAF
KFWA 301731Z 3018/3118 26008KT P6SM SCT040 BKN100
     FM301900 29010KT P6SM VCTS BKN045CB
     FM302300 28003KT P6SM SCT250=

USA.gov is the U.S. government's official web portal to all federal, state and local government web resources and services.